sensor_id;sensor_type;location;lat;lon;timestamp;temperature;humidity
9537;DHT22;4807;48.024;11.726;2023-04-29T00:01:37;9.00;99.90
9537;DHT22;4807;48.024;11.726;2023-04-29T00:04:45;9.00;99.90
9537;DHT22;4807;48.024;11.726;2023-04-29T00:07:55;9.00;99.90
9537;DHT22;4807;48.024;11.726;2023-04-29T00:11:03;8.90;99.90
9537;DHT22;4807;48.024;11.726;2023-04-29T00:14:11;8.80;99.90
9537;DHT22;4807;48.024;11.726;2023-04-29T00:17:20;8.80;99.90
9537;DHT22;4807;48.024;11.726;2023-04-29T00:20:28;8.80;99.90
9537;DHT22;4807;48.024;11.726;2023-04-29T00:23:38;8.80;99.90
9537;DHT22;4807;48.024;11.726;2023-04-29T00:26:46;8.80;99.90
9537;DHT22;4807;48.024;11.726;2023-04-29T00:29:55;8.90;99.90
9537;DHT22;4807;48.024;11.726;2023-04-29T00:33:03;8.90;99.90
9537;DHT22;4807;48.024;11.726;2023-04-29T00:36:11;8.90;99.90
9537;DHT22;4807;48.024;11.726;2023-04-29T00:39:22;8.90;99.90
9537;DHT22;4807;48.024;11.726;2023-04-29T00:42:31;8.90;99.90
9537;DHT22;4807;48.024;11.726;2023-04-29T00:45:40;8.90;99.90
9537;DHT22;4807;48.024;11.726;2023-04-29T00:48:48;8.90;99.90
9537;DHT22;4807;48.024;11.726;2023-04-29T00:51:58;9.00;99.90
9537;DHT22;4807;48.024;11.726;2023-04-29T00:55:10;9.00;99.90
9537;DHT22;4807;48.024;11.726;2023-04-29T00:58:20;9.00;99.90
9537;DHT22;4807;48.024;11.726;2023-04-29T01:01:29;8.90;99.90
9537;DHT22;4807;48.024;11.726;2023-04-29T01:04:38;8.90;99.90
9537;DHT22;4807;48.024;11.726;2023-04-29T01:07:55;9.00;99.90
9537;DHT22;4807;48.024;11.726;2023-04-29T01:14:27;9.10;99.90
9537;DHT22;4807;48.024;11.726;2023-04-29T01:17:39;9.10;99.90
9537;DHT22;4807;48.024;11.726;2023-04-29T01:20:51;9.20;99.90
9537;DHT22;4807;48.024;11.726;2023-04-29T01:24:02;9.20;99.90
9537;DHT22;4807;48.024;11.726;2023-04-29T01:27:20;9.20;99.90
9537;DHT22;4807;48.024;11.726;2023-04-29T01:30:50;9.30;99.90
9537;DHT22;4807;48.024;11.726;2023-04-29T01:34:08;9.30;99.90
9537;DHT22;4807;48.024;11.726;2023-04-29T01:37:30;9.30;99.90
9537;DHT22;4807;48.024;11.726;2023-04-29T01:40:51;9.30;99.90
9537;DHT22;4807;48.024;11.726;2023-04-29T01:44:07;9.40;99.90
9537;DHT22;4807;48.024;11.726;2023-04-29T01:47:22;9.40;99.90
9537;DHT22;4807;48.024;11.726;2023-04-29T01:50:33;9.40;99.90
9537;DHT22;4807;48.024;11.726;2023-04-29T01:53:50;9.40;99.90
9537;DHT22;4807;48.024;11.726;2023-04-29T01:56:59;9.30;99.90
9537;DHT22;4807;48.024;11.726;2023-04-29T02:00:28;9.40;99.90
9537;DHT22;4807;48.024;11.726;2023-04-29T02:03:37;9.40;99.90
9537;DHT22;4807;48.024;11.726;2023-04-29T02:06:51;9.40;99.90
9537;DHT22;4807;48.024;11.726;2023-04-29T02:10:00;9.40;99.90
9537;DHT22;4807;48.024;11.726;2023-04-29T02:13:13;9.40;99.90
9537;DHT22;4807;48.024;11.726;2023-04-29T02:16:22;9.40;99.90
9537;DHT22;4807;48.024;11.726;2023-04-29T02:19:35;9.30;99.90
9537;DHT22;4807;48.024;11.726;2023-04-29T02:22:44;9.40;99.90
9537;DHT22;4807;48.024;11.726;2023-04-29T02:25:53;9.40;99.90
9537;DHT22;4807;48.024;11.726;2023-04-29T02:29:05;9.50;99.90
9537;DHT22;4807;48.024;11.726;2023-04-29T02:32:13;9.60;99.90
9537;DHT22;4807;48.024;11.726;2023-04-29T02:35:21;9.60;99.90
9537;DHT22;4807;48.024;11.726;2023-04-29T02:38:29;9.60;99.90
9537;DHT22;4807;48.024;11.726;2023-04-29T02:41:39;9.60;99.90
9537;DHT22;4807;48.024;11.726;2023-04-29T02:44:52;9.60;99.90
9537;DHT22;4807;48.024;11.726;2023-04-29T02:48:00;9.60;99.90
9537;DHT22;4807;48.024;11.726;2023-04-29T02:51:09;9.60;99.90
9537;DHT22;4807;48.024;11.726;2023-04-29T02:54:17;9.60;99.90
9537;DHT22;4807;48.024;11.726;2023-04-29T02:57:26;9.70;99.90
9537;DHT22;4807;48.024;11.726;2023-04-29T03:00:36;9.70;99.90
9537;DHT22;4807;48.024;11.726;2023-04-29T03:03:47;9.70;99.90
9537;DHT22;4807;48.024;11.726;2023-04-29T03:06:56;9.70;99.90
9537;DHT22;4807;48.024;11.726;2023-04-29T03:10:07;9.60;99.90
9537;DHT22;4807;48.024;11.726;2023-04-29T03:13:17;9.50;99.90
9537;DHT22;4807;48.024;11.726;2023-04-29T03:16:27;11.50;99.90
9537;DHT22;4807;48.024;11.726;2023-04-29T03:19:36;9.50;99.90
9537;DHT22;4807;48.024;11.726;2023-04-29T03:22:44;9.50;99.90
9537;DHT22;4807;48.024;11.726;2023-04-29T03:25:52;9.50;99.90
9537;DHT22;4807;48.024;11.726;2023-04-29T03:29:01;9.60;99.90
9537;DHT22;4807;48.024;11.726;2023-04-29T03:32:11;9.70;99.90
9537;DHT22;4807;48.024;11.726;2023-04-29T03:35:20;9.70;99.90
9537;DHT22;4807;48.024;11.726;2023-04-29T03:38:48;9.80;99.90
9537;DHT22;4807;48.024;11.726;2023-04-29T03:41:56;9.90;99.90
9537;DHT22;4807;48.024;11.726;2023-04-29T03:45:06;9.90;99.90
9537;DHT22;4807;48.024;11.726;2023-04-29T03:48:17;10.00;99.90
9537;DHT22;4807;48.024;11.726;2023-04-29T03:51:27;10.00;99.90
9537;DHT22;4807;48.024;11.726;2023-04-29T03:54:44;10.00;99.90
9537;DHT22;4807;48.024;11.726;2023-04-29T03:57:52;10.00;99.90
9537;DHT22;4807;48.024;11.726;2023-04-29T04:01:01;10.10;99.90
9537;DHT22;4807;48.024;11.726;2023-04-29T04:04:20;10.00;99.90
9537;DHT22;4807;48.024;11.726;2023-04-29T04:07:29;10.00;99.90
9537;DHT22;4807;48.024;11.726;2023-04-29T04:11:04;10.00;99.90
9537;DHT22;4807;48.024;11.726;2023-04-29T04:14:19;10.00;99.90
9537;DHT22;4807;48.024;11.726;2023-04-29T04:17:29;10.00;99.90
9537;DHT22;4807;48.024;11.726;2023-04-29T04:20:39;10.10;99.90
9537;DHT22;4807;48.024;11.726;2023-04-29T04:23:48;10.10;99.90
9537;DHT22;4807;48.024;11.726;2023-04-29T04:27:01;10.10;99.90
9537;DHT22;4807;48.024;11.726;2023-04-29T04:30:14;10.20;99.90
9537;DHT22;4807;48.024;11.726;2023-04-29T04:33:23;10.20;99.90
9537;DHT22;4807;48.024;11.726;2023-04-29T04:36:34;10.20;99.90
9537;DHT22;4807;48.024;11.726;2023-04-29T04:39:42;10.20;99.90
9537;DHT22;4807;48.024;11.726;2023-04-29T04:42:53;10.40;99.90
9537;DHT22;4807;48.024;11.726;2023-04-29T04:46:09;10.40;99.90
9537;DHT22;4807;48.024;11.726;2023-04-29T04:49:23;10.50;99.90
9537;DHT22;4807;48.024;11.726;2023-04-29T04:52:33;10.70;99.90
9537;DHT22;4807;48.024;11.726;2023-04-29T04:55:54;10.70;99.90
9537;DHT22;4807;48.024;11.726;2023-04-29T04:59:03;10.80;99.90
9537;DHT22;4807;48.024;11.726;2023-04-29T05:02:13;10.90;99.90
9537;DHT22;4807;48.024;11.726;2023-04-29T05:05:21;10.90;99.90
9537;DHT22;4807;48.024;11.726;2023-04-29T05:08:31;11.00;99.90
9537;DHT22;4807;48.024;11.726;2023-04-29T05:11:42;11.00;99.90
9537;DHT22;4807;48.024;11.726;2023-04-29T05:14:52;11.20;99.90
9537;DHT22;4807;48.024;11.726;2023-04-29T05:18:01;11.30;99.90
9537;DHT22;4807;48.024;11.726;2023-04-29T05:21:10;11.40;99.90
9537;DHT22;4807;48.024;11.726;2023-04-29T05:24:20;11.40;99.90
9537;DHT22;4807;48.024;11.726;2023-04-29T05:27:30;11.50;99.90
9537;DHT22;4807;48.024;11.726;2023-04-29T05:30:39;11.70;99.90
9537;DHT22;4807;48.024;11.726;2023-04-29T05:33:47;11.80;99.90
9537;DHT22;4807;48.024;11.726;2023-04-29T05:36:56;11.90;99.90
9537;DHT22;4807;48.024;11.726;2023-04-29T05:40:08;12.00;99.90
9537;DHT22;4807;48.024;11.726;2023-04-29T05:43:18;12.00;99.90
9537;DHT22;4807;48.024;11.726;2023-04-29T05:46:26;12.30;99.90
9537;DHT22;4807;48.024;11.726;2023-04-29T05:49:35;12.50;99.90
9537;DHT22;4807;48.024;11.726;2023-04-29T05:52:43;12.90;99.90
9537;DHT22;4807;48.024;11.726;2023-04-29T05:55:53;13.20;99.90
9537;DHT22;4807;48.024;11.726;2023-04-29T05:59:01;13.20;99.90
9537;DHT22;4807;48.024;11.726;2023-04-29T06:02:11;13.50;99.90
9537;DHT22;4807;48.024;11.726;2023-04-29T06:05:21;14.10;99.90
9537;DHT22;4807;48.024;11.726;2023-04-29T06:08:53;15.30;99.90
9537;DHT22;4807;48.024;11.726;2023-04-29T06:12:07;16.80;99.90
9537;DHT22;4807;48.024;11.726;2023-04-29T06:15:15;17.00;99.90
9537;DHT22;4807;48.024;11.726;2023-04-29T06:18:24;16.90;99.90
9537;DHT22;4807;48.024;11.726;2023-04-29T06:21:32;18.30;99.90
9537;DHT22;4807;48.024;11.726;2023-04-29T06:24:41;18.40;99.90
9537;DHT22;4807;48.024;11.726;2023-04-29T06:27:56;17.90;99.90
9537;DHT22;4807;48.024;11.726;2023-04-29T06:31:06;17.40;99.90
9537;DHT22;4807;48.024;11.726;2023-04-29T06:34:15;18.50;99.90
9537;DHT22;4807;48.024;11.726;2023-04-29T06:37:40;19.90;99.90
9537;DHT22;4807;48.024;11.726;2023-04-29T06:41:05;21.10;96.90
9537;DHT22;4807;48.024;11.726;2023-04-29T06:44:35;20.30;97.00
9537;DHT22;4807;48.024;11.726;2023-04-29T06:48:13;19.00;99.60
9537;DHT22;4807;48.024;11.726;2023-04-29T06:51:26;16.40;99.90
9537;DHT22;4807;48.024;11.726;2023-04-29T06:54:37;16.40;99.90
9537;DHT22;4807;48.024;11.726;2023-04-29T06:57:45;15.80;99.90
9537;DHT22;4807;48.024;11.726;2023-04-29T07:00:55;18.00;99.90
9537;DHT22;4807;48.024;11.726;2023-04-29T07:04:03;18.40;99.90
9537;DHT22;4807;48.024;11.726;2023-04-29T07:07:12;19.40;99.90
9537;DHT22;4807;48.024;11.726;2023-04-29T07:10:20;19.40;99.90
9537;DHT22;4807;48.024;11.726;2023-04-29T07:13:29;18.70;99.90
9537;DHT22;4807;48.024;11.726;2023-04-29T07:16:39;17.00;99.90
9537;DHT22;4807;48.024;11.726;2023-04-29T07:19:49;16.10;99.90
9537;DHT22;4807;48.024;11.726;2023-04-29T07:22:59;15.30;99.90
9537;DHT22;4807;48.024;11.726;2023-04-29T07:26:09;15.00;99.90
9537;DHT22;4807;48.024;11.726;2023-04-29T07:29:19;14.50;99.90
9537;DHT22;4807;48.024;11.726;2023-04-29T07:32:29;14.60;99.90
9537;DHT22;4807;48.024;11.726;2023-04-29T07:35:42;14.70;99.90
9537;DHT22;4807;48.024;11.726;2023-04-29T07:38:51;15.00;99.90
9537;DHT22;4807;48.024;11.726;2023-04-29T07:42:00;15.70;99.90
9537;DHT22;4807;48.024;11.726;2023-04-29T07:45:10;17.50;99.90
9537;DHT22;4807;48.024;11.726;2023-04-29T07:48:24;19.40;99.90
9537;DHT22;4807;48.024;11.726;2023-04-29T07:51:33;21.20;94.70
9537;DHT22;4807;48.024;11.726;2023-04-29T07:54:41;21.10;95.20
9537;DHT22;4807;48.024;11.726;2023-04-29T07:57:51;20.40;96.70
9537;DHT22;4807;48.024;11.726;2023-04-29T08:01:04;21.60;95.60
9537;DHT22;4807;48.024;11.726;2023-04-29T08:04:15;22.80;92.60
9537;DHT22;4807;48.024;11.726;2023-04-29T08:07:28;22.00;92.40
9537;DHT22;4807;48.024;11.726;2023-04-29T08:10:37;21.20;93.80
9537;DHT22;4807;48.024;11.726;2023-04-29T08:13:49;20.70;95.70
9537;DHT22;4807;48.024;11.726;2023-04-29T08:16:57;21.80;93.90
9537;DHT22;4807;48.024;11.726;2023-04-29T08:20:08;22.10;90.60
9537;DHT22;4807;48.024;11.726;2023-04-29T08:23:17;19.40;96.30
9537;DHT22;4807;48.024;11.726;2023-04-29T08:26:25;18.90;98.20
9537;DHT22;4807;48.024;11.726;2023-04-29T08:29:34;20.60;96.10
9537;DHT22;4807;48.024;11.726;2023-04-29T08:32:42;22.50;93.90
9537;DHT22;4807;48.024;11.726;2023-04-29T08:35:58;22.30;92.00
9537;DHT22;4807;48.024;11.726;2023-04-29T08:39:09;20.40;93.90
9537;DHT22;4807;48.024;11.726;2023-04-29T08:42:20;18.30;98.50
9537;DHT22;4807;48.024;11.726;2023-04-29T08:45:40;17.90;99.90
9537;DHT22;4807;48.024;11.726;2023-04-29T08:48:49;18.80;98.40
9537;DHT22;4807;48.024;11.726;2023-04-29T08:52:00;17.70;99.90
9537;DHT22;4807;48.024;11.726;2023-04-29T08:55:08;17.70;99.90
9537;DHT22;4807;48.024;11.726;2023-04-29T08:58:17;16.90;99.90
9537;DHT22;4807;48.024;11.726;2023-04-29T09:01:26;15.60;99.90
9537;DHT22;4807;48.024;11.726;2023-04-29T09:04:40;15.50;99.90
9537;DHT22;4807;48.024;11.726;2023-04-29T09:07:57;15.40;99.90
9537;DHT22;4807;48.024;11.726;2023-04-29T09:11:09;15.70;99.90
9537;DHT22;4807;48.024;11.726;2023-04-29T09:14:19;16.40;99.90
9537;DHT22;4807;48.024;11.726;2023-04-29T09:17:40;17.60;99.40
9537;DHT22;4807;48.024;11.726;2023-04-29T09:21:12;18.90;96.40
9537;DHT22;4807;48.024;11.726;2023-04-29T09:24:26;19.50;96.10
9537;DHT22;4807;48.024;11.726;2023-04-29T09:27:35;19.90;93.20
9537;DHT22;4807;48.024;11.726;2023-04-29T09:30:46;19.60;93.00
9537;DHT22;4807;48.024;11.726;2023-04-29T09:33:56;18.10;95.60
9537;DHT22;4807;48.024;11.726;2023-04-29T09:37:23;17.80;96.90
9537;DHT22;4807;48.024;11.726;2023-04-29T09:40:35;18.30;96.60
9537;DHT22;4807;48.024;11.726;2023-04-29T09:44:03;18.40;95.10
9537;DHT22;4807;48.024;11.726;2023-04-29T09:47:13;18.70;95.30
9537;DHT22;4807;48.024;11.726;2023-04-29T09:50:24;18.50;93.60
9537;DHT22;4807;48.024;11.726;2023-04-29T09:53:32;18.40;93.90
9537;DHT22;4807;48.024;11.726;2023-04-29T09:56:49;18.00;95.80
9537;DHT22;4807;48.024;11.726;2023-04-29T09:59:58;17.70;97.90
9537;DHT22;4807;48.024;11.726;2023-04-29T10:03:07;17.10;98.50
9537;DHT22;4807;48.024;11.726;2023-04-29T10:06:16;17.00;98.30
9537;DHT22;4807;48.024;11.726;2023-04-29T10:09:25;16.90;98.70
9537;DHT22;4807;48.024;11.726;2023-04-29T10:12:35;17.40;98.40
9537;DHT22;4807;48.024;11.726;2023-04-29T10:15:51;18.20;96.10
9537;DHT22;4807;48.024;11.726;2023-04-29T10:19:10;19.00;96.70
9537;DHT22;4807;48.024;11.726;2023-04-29T10:22:35;20.10;94.70
9537;DHT22;4807;48.024;11.726;2023-04-29T10:25:52;20.60;92.20
9537;DHT22;4807;48.024;11.726;2023-04-29T10:29:04;20.20;91.20
9537;DHT22;4807;48.024;11.726;2023-04-29T10:32:16;18.80;93.90
9537;DHT22;4807;48.024;11.726;2023-04-29T10:35:25;16.70;96.70
9537;DHT22;4807;48.024;11.726;2023-04-29T10:38:35;15.90;98.80
9537;DHT22;4807;48.024;11.726;2023-04-29T10:41:48;16.10;99.90
9537;DHT22;4807;48.024;11.726;2023-04-29T10:45:31;16.80;98.80
9537;DHT22;4807;48.024;11.726;2023-04-29T10:48:43;17.80;97.50
9537;DHT22;4807;48.024;11.726;2023-04-29T10:52:02;17.70;96.40
9537;DHT22;4807;48.024;11.726;2023-04-29T10:55:11;17.10;95.60
9537;DHT22;4807;48.024;11.726;2023-04-29T10:58:33;16.90;97.10
9537;DHT22;4807;48.024;11.726;2023-04-29T11:01:47;16.70;95.50
9537;DHT22;4807;48.024;11.726;2023-04-29T11:05:07;16.60;95.70
9537;DHT22;4807;48.024;11.726;2023-04-29T11:08:19;16.50;96.30
9537;DHT22;4807;48.024;11.726;2023-04-29T11:11:46;17.00;99.70
9537;DHT22;4807;48.024;11.726;2023-04-29T11:15:09;17.00;99.90
9537;DHT22;4807;48.024;11.726;2023-04-29T11:18:22;16.60;98.10
9537;DHT22;4807;48.024;11.726;2023-04-29T11:21:33;16.60;98.80
9537;DHT22;4807;48.024;11.726;2023-04-29T11:24:48;16.50;99.10
9537;DHT22;4807;48.024;11.726;2023-04-29T11:27:59;16.60;99.10
9537;DHT22;4807;48.024;11.726;2023-04-29T11:31:08;17.00;98.20
9537;DHT22;4807;48.024;11.726;2023-04-29T11:34:24;17.30;98.30
9537;DHT22;4807;48.024;11.726;2023-04-29T11:37:34;17.60;97.10
9537;DHT22;4807;48.024;11.726;2023-04-29T11:40:48;18.30;96.20
9537;DHT22;4807;48.024;11.726;2023-04-29T11:43:59;18.50;96.30
9537;DHT22;4807;48.024;11.726;2023-04-29T11:47:09;17.40;95.40
9537;DHT22;4807;48.024;11.726;2023-04-29T11:50:19;16.80;98.80
9537;DHT22;4807;48.024;11.726;2023-04-29T11:53:28;16.80;98.10
9537;DHT22;4807;48.024;11.726;2023-04-29T11:56:37;16.90;97.40
9537;DHT22;4807;48.024;11.726;2023-04-29T11:59:46;16.80;96.60
9537;DHT22;4807;48.024;11.726;2023-04-29T12:02:54;16.90;97.90
9537;DHT22;4807;48.024;11.726;2023-04-29T12:06:05;17.20;97.10
9537;DHT22;4807;48.024;11.726;2023-04-29T12:09:14;17.60;97.10
9537;DHT22;4807;48.024;11.726;2023-04-29T12:12:25;17.90;94.70
9537;DHT22;4807;48.024;11.726;2023-04-29T12:15:36;17.90;95.20
9537;DHT22;4807;48.024;11.726;2023-04-29T12:18:46;18.00;94.10
9537;DHT22;4807;48.024;11.726;2023-04-29T12:21:59;18.10;96.60
9537;DHT22;4807;48.024;11.726;2023-04-29T12:25:08;17.40;95.00
9537;DHT22;4807;48.024;11.726;2023-04-29T12:28:18;16.60;95.50
9537;DHT22;4807;48.024;11.726;2023-04-29T12:31:32;17.30;94.50
9537;DHT22;4807;48.024;11.726;2023-04-29T12:34:45;17.30;94.70
9537;DHT22;4807;48.024;11.726;2023-04-29T12:37:57;17.40;96.80
9537;DHT22;4807;48.024;11.726;2023-04-29T12:41:06;17.20;94.40
9537;DHT22;4807;48.024;11.726;2023-04-29T12:44:15;17.00;95.40
9537;DHT22;4807;48.024;11.726;2023-04-29T12:47:30;17.10;94.70
9537;DHT22;4807;48.024;11.726;2023-04-29T12:50:40;17.50;94.10
9537;DHT22;4807;48.024;11.726;2023-04-29T12:53:50;17.40;93.00
9537;DHT22;4807;48.024;11.726;2023-04-29T12:56:59;17.30;93.40
9537;DHT22;4807;48.024;11.726;2023-04-29T13:00:10;17.00;94.50
9537;DHT22;4807;48.024;11.726;2023-04-29T13:03:19;16.90;94.90
9537;DHT22;4807;48.024;11.726;2023-04-29T13:06:28;16.80;93.80
9537;DHT22;4807;48.024;11.726;2023-04-29T13:09:39;16.90;93.60
9537;DHT22;4807;48.024;11.726;2023-04-29T13:12:48;16.60;94.10
9537;DHT22;4807;48.024;11.726;2023-04-29T13:15:56;16.80;94.90
9537;DHT22;4807;48.024;11.726;2023-04-29T13:19:05;17.00;93.60
9537;DHT22;4807;48.024;11.726;2023-04-29T13:22:33;17.10;94.70
9537;DHT22;4807;48.024;11.726;2023-04-29T13:25:44;17.20;95.30
9537;DHT22;4807;48.024;11.726;2023-04-29T13:28:54;17.10;92.30
9537;DHT22;4807;48.024;11.726;2023-04-29T13:32:02;17.00;95.00
9537;DHT22;4807;48.024;11.726;2023-04-29T13:35:12;17.00;95.00
9537;DHT22;4807;48.024;11.726;2023-04-29T13:38:21;16.90;94.00
9537;DHT22;4807;48.024;11.726;2023-04-29T13:41:30;17.10;94.60
9537;DHT22;4807;48.024;11.726;2023-04-29T13:44:41;17.10;93.70
9537;DHT22;4807;48.024;11.726;2023-04-29T13:47:59;17.30;94.60
9537;DHT22;4807;48.024;11.726;2023-04-29T13:51:10;17.20;92.40
9537;DHT22;4807;48.024;11.726;2023-04-29T13:54:22;17.10;94.10
9537;DHT22;4807;48.024;11.726;2023-04-29T13:57:52;17.20;93.00
9537;DHT22;4807;48.024;11.726;2023-04-29T14:01:05;17.00;93.40
9537;DHT22;4807;48.024;11.726;2023-04-29T14:04:34;16.90;92.10
9537;DHT22;4807;48.024;11.726;2023-04-29T14:07:43;17.10;94.40
9537;DHT22;4807;48.024;11.726;2023-04-29T14:10:53;17.00;92.80
9537;DHT22;4807;48.024;11.726;2023-04-29T14:14:05;16.60;91.90
9537;DHT22;4807;48.024;11.726;2023-04-29T14:17:15;16.60;93.30
9537;DHT22;4807;48.024;11.726;2023-04-29T14:20:24;16.80;92.60
9537;DHT22;4807;48.024;11.726;2023-04-29T14:23:33;16.80;93.40
9537;DHT22;4807;48.024;11.726;2023-04-29T14:26:42;17.10;91.90
9537;DHT22;4807;48.024;11.726;2023-04-29T14:29:52;17.40;92.10
9537;DHT22;4807;48.024;11.726;2023-04-29T14:33:01;17.90;92.70
9537;DHT22;4807;48.024;11.726;2023-04-29T14:36:10;17.80;90.80
9537;DHT22;4807;48.024;11.726;2023-04-29T14:39:18;17.00;90.90
9537;DHT22;4807;48.024;11.726;2023-04-29T14:42:27;17.10;92.20
9537;DHT22;4807;48.024;11.726;2023-04-29T14:45:37;17.40;92.10
9537;DHT22;4807;48.024;11.726;2023-04-29T14:48:46;17.50;90.90
9537;DHT22;4807;48.024;11.726;2023-04-29T14:51:55;17.30;92.20
9537;DHT22;4807;48.024;11.726;2023-04-29T14:55:04;17.30;92.10
9537;DHT22;4807;48.024;11.726;2023-04-29T14:58:13;17.40;93.50
9537;DHT22;4807;48.024;11.726;2023-04-29T15:01:23;17.60;92.20
9537;DHT22;4807;48.024;11.726;2023-04-29T15:04:35;17.60;92.50
9537;DHT22;4807;48.024;11.726;2023-04-29T15:07:43;17.10;92.70
